This is the latest recevied weather packets stored in our database for station/object IQ5QD-13. If no packets are shown the sender has not sent any weather packets the latest 10 day(s).
| Time | Temp. | Humidity | Pressure | Rain* | Wind** | Luminosity | Snow |
|---|---|---|---|---|---|---|---|
| 1777492537 | 13.33° C | 70% | 1011 hPa | 0 mm | - | 0 W/m² | - |
| 1777488334 | 19.44° C | 49% | 1010.4 hPa | 0 mm | - | 0 W/m² | - |
| 1777482338 | 23.33° C | 36% | 1009.2 hPa | 0 mm | - | 80 W/m² | - |
| 1777480564 | 23.33° C | 36% | 1009.2 hPa | 0 mm | - | 127 W/m² | - |
| 1777470918 | 26.11° C | 32% | 1009.6 hPa | 0 mm | - | 534 W/m² | - |
| 1777466756 | 26.67° C | 29% | 1010.1 hPa | 0 mm | - | 655 W/m² | - |
| 1777466136 | 26.11° C | 29% | 1010.2 hPa | 0 mm | - | 666 W/m² | - |
| 1777458937 | 25° C | 34% | 1010.8 hPa | 0 mm | - | 677 W/m² | - |
| 1777455931 | 23.33° C | 42% | 1011.3 hPa | 0 mm | - | 616 W/m² | - |
| 1777454794 | 22.22° C | 44% | 1011.5 hPa | 0 mm | - | 577 W/m² | - |
| 1777454137 | 22.22° C | 50% | 1011.5 hPa | 0 mm | - | 566 W/m² | - |
| 1777453574 | 22.22° C | 49% | 1011.5 hPa | 0 mm | - | 551 W/m² | - |
| 1777452957 | 21.67° C | 49% | 1011.5 hPa | 0 mm | - | 528 W/m² | - |
| 1777451741 | 20.56° C | 59% | 1011.5 hPa | 0 mm | - | 481 W/m² | - |
| 1777449343 | 17.78° C | 67% | 1011.8 hPa | 0 mm | - | 384 W/m² | - |
| 1777448761 | 17.22° C | 66% | 1011.8 hPa | 0 mm | - | 359 W/m² | - |
| 1777446942 | 16.11° C | 71% | 1011.8 hPa | 0 mm | - | 288 W/m² | - |
| 1777443925 | 13.33° C | 78% | 1011.6 hPa | 0 mm | - | 154 W/m² | - |
| 1777442133 | 11.11° C | 82% | 1011.7 hPa | 0 mm | - | 99 W/m² | - |
| 1777439765 | 8.33° C | 90% | 1011.5 hPa | 0 mm | - | 44 W/m² | - |
| 1777438542 | 6.11° C | 91% | 1011.2 hPa | 0 mm | - | 26 W/m² | - |
| 1777435556 | 6.11° C | 90% | 1011.2 hPa | 0 mm | - | 1 W/m² | - |
| 1777432533 | 6.67° C | 90% | 1011.4 hPa | 0 mm | - | 0 W/m² | - |
| 1777431317 | 6.67° C | 90% | 1011.4 hPa | 0 mm | - | 0 W/m² | - |
| 1777428373 | 7.22° C | 90% | 1011.4 hPa | 0 mm | - | 0 W/m² | - |
* Rain latest hour (hover to see other rain measurements)
** Current wind speed in m/s (hover to see current wind gust speed)